Time;durP1;ratioP1;P1;durP2;ratioP2;P2;SDS_P1;SDS_P2;PMS_P1;PMS_P2;Temp;Humidity;BMP_temperature;BMP_pressure;BME280_temperature;BME280_humidity;BME280_pressure;Samples;Min_cycle;Max_cycle;Signal;HPM_P1;HPM_P2
2022/03/28 00:00:10;;;;;;;;;48.50;32.50;;;;;14.76;45.08;102279.16;5052582;28;45404;-66
2022/03/28 00:02:41;;;;;;;;;37.00;31.50;;;;;14.74;45.00;102274.88;5048908;28;45359;-61
2022/03/28 00:05:11;;;;;;;;;42.50;33.00;;;;;14.71;45.44;102275.91;5043287;28;45258;-64
2022/03/28 00:07:37;;;;;;;;;47.50;33.75;;;;;14.70;45.68;102270.69;5051125;28;45495;-61
2022/03/28 00:10:04;;;;;;;;;45.00;30.50;;;;;14.68;45.83;102262.78;5040340;28;45387;-63
2022/03/28 00:12:29;;;;;;;;;35.00;31.50;;;;;14.67;45.76;102263.72;5040291;28;45364;-63
2022/03/28 00:14:55;;;;;;;;;38.00;32.25;;;;;14.67;46.21;102270.84;5041357;28;45465;-63
2022/03/28 00:17:20;;;;;;;;;37.50;31.50;;;;;14.66;46.26;102271.78;5043276;28;45393;-64
2022/03/28 00:19:46;;;;;;;;;43.75;33.75;;;;;14.62;46.37;102254.31;5043910;28;45358;-64
2022/03/28 00:22:11;;;;;;;;;49.50;41.25;;;;;14.61;46.47;102264.03;5043717;28;45284;-67
2022/03/28 00:24:37;;;;;;;;;36.25;32.25;;;;;14.59;46.43;102267.72;5043553;28;45324;-63
2022/03/28 00:27:03;;;;;;;;;38.50;33.50;;;;;14.58;46.36;102263.34;5043491;28;45412;-67
2022/03/28 00:29:28;;;;;;;;;42.50;34.75;;;;;14.55;46.93;102258.22;5043609;28;45351;-68
2022/03/28 00:31:54;;;;;;;;;44.00;34.75;;;;;14.53;47.01;102255.63;5042773;28;45345;-62
2022/03/28 00:34:21;;;;;;;;;41.75;33.25;;;;;14.50;47.02;102256.66;5043776;28;45479;-66
2022/03/28 00:36:49;;;;;;;;;42.75;33.00;;;;;14.46;46.90;102254.25;5042867;28;45537;-68
2022/03/28 00:39:16;;;;;;;;;45.25;34.00;;;;;14.44;47.22;102250.78;5048370;28;45431;-64
2022/03/28 00:41:42;;;;;;;;;47.50;35.25;;;;;14.39;47.08;102248.38;5055962;28;45372;-65
2022/03/28 00:44:08;;;;;;;;;38.25;33.75;;;;;14.36;47.51;102240.56;5054453;28;45748;-65
2022/03/28 00:46:35;;;;;;;;;37.25;28.25;;;;;14.32;47.61;102239.00;5048254;28;45456;-65
2022/03/28 00:49:01;;;;;;;;;35.25;32.50;;;;;14.28;47.71;102239.25;5053786;28;45478;-65
2022/03/28 00:51:26;;;;;;;;;38.50;36.00;;;;;14.23;47.92;102240.34;5043795;28;45503;-65
2022/03/28 00:53:52;;;;;;;;;39.75;35.75;;;;;14.18;48.12;102236.19;5042919;28;45471;-65
2022/03/28 00:56:18;;;;;;;;;39.50;32.75;;;;;14.14;48.13;102239.91;5042595;28;45388;-65
2022/03/28 00:58:44;;;;;;;;;48.00;33.50;;;;;14.09;48.36;102234.88;5042706;28;45356;-65
2022/03/28 01:01:11;;;;;;;;;39.25;33.25;;;;;14.06;48.18;102235.03;5042429;28;45587;-65
2022/03/28 01:03:37;;;;;;;;;37.75;33.50;;;;;14.06;48.58;102236.81;5042735;28;45808;-65
2022/03/28 01:06:03;;;;;;;;;44.75;36.00;;;;;14.03;48.74;102243.13;5042323;28;45420;-65
2022/03/28 01:08:29;;;;;;;;;33.75;28.25;;;;;13.99;48.55;102230.97;5045301;28;45383;-64
2022/03/28 01:11:00;;;;;;;;;45.75;34.25;;;;;13.95;48.63;102224.94;5042412;28;45313;-65
2022/03/28 01:13:27;;;;;;;;;42.00;34.00;;;;;13.90;49.05;102226.09;5042583;28;45483;-64
2022/03/28 01:15:52;;;;;;;;;40.75;25.25;;;;;13.87;49.10;102223.63;5041916;28;46306;-65
2022/03/28 01:18:18;;;;;;;;;37.00;31.00;;;;;13.84;49.31;102221.13;5042447;28;45274;-65
2022/03/28 01:20:44;;;;;;;;;40.50;31.50;;;;;13.82;49.37;102217.69;5042276;28;45345;-65
2022/03/28 01:23:10;;;;;;;;;40.00;32.75;;;;;13.76;49.65;102216.22;5042497;28;45334;-65
2022/03/28 01:25:36;;;;;;;;;42.75;35.75;;;;;13.71;49.55;102214.72;5041346;28;45726;-65
2022/03/28 01:28:02;;;;;;;;;45.25;35.75;;;;;13.65;49.93;102218.50;5040399;28;45421;-65
2022/03/28 01:30:29;;;;;;;;;44.75;35.00;;;;;13.61;49.88;102215.16;5040491;28;45427;-65
2022/03/28 01:32:56;;;;;;;;;34.75;28.75;;;;;13.57;50.01;102212.72;5040842;28;45588;-65
2022/03/28 01:35:26;;;;;;;;;43.25;33.00;;;;;13.56;50.35;102211.00;5040492;28;45447;-65
2022/03/28 01:37:52;;;;;;;;;32.75;27.50;;;;;13.53;50.16;102204.09;5041551;28;45427;-65
2022/03/28 01:40:17;;;;;;;;;43.75;35.50;;;;;13.51;50.27;102205.06;5048981;28;45516;-65
2022/03/28 01:42:43;;;;;;;;;43.00;35.50;;;;;13.48;50.53;102203.44;5042042;28;45627;-65
2022/03/28 01:45:08;;;;;;;;;41.75;35.50;;;;;13.48;50.23;102205.22;5061800;28;45746;-65
2022/03/28 01:47:34;;;;;;;;;45.50;36.00;;;;;13.47;50.76;102196.44;5061997;28;45573;-64
2022/03/28 01:49:59;;;;;;;;;49.00;38.00;;;;;13.46;50.58;102200.03;5062174;28;45577;-65
2022/03/28 01:52:25;;;;;;;;;41.75;34.75;;;;;13.42;50.64;102203.72;5062202;28;45411;-65
2022/03/28 01:54:50;;;;;;;;;48.50;37.75;;;;;13.39;51.32;102195.94;5061914;28;46116;-65
2022/03/28 01:57:16;;;;;;;;;47.25;37.50;;;;;13.39;51.38;102193.28;5062047;28;45418;-64
2022/03/28 01:59:41;;;;;;;;;44.50;37.50;;;;;13.39;51.22;102198.59;5062189;28;45231;-65
2022/03/28 02:02:07;;;;;;;;;47.25;34.50;;;;;13.39;52.01;102198.59;5061684;28;45358;-64
2022/03/28 02:04:38;;;;;;;;;46.75;36.50;;;;;13.39;52.40;102191.50;5061070;28;45364;-65
2022/03/28 02:07:03;;;;;;;;;55.00;37.00;;;;;13.38;53.02;102192.44;5061652;28;45425;-64
2022/03/28 02:09:29;;;;;;;;;47.75;38.00;;;;;13.38;53.35;102191.59;5042430;28;45407;-65
2022/03/28 02:11:55;;;;;;;;;54.25;38.50;;;;;13.36;53.70;102191.66;5042225;28;45333;-64
2022/03/28 02:14:20;;;;;;;;;55.00;39.75;;;;;13.34;53.79;102193.50;5042056;28;45368;-64
2022/03/28 02:16:46;;;;;;;;;49.50;37.25;;;;;13.34;54.07;102193.50;5041851;28;45282;-65
2022/03/28 02:19:12;;;;;;;;;54.75;40.25;;;;;13.32;54.08;102190.09;5042255;28;45312;-65
2022/03/28 02:21:37;;;;;;;;;49.25;39.75;;;;;13.33;54.35;102189.16;5042182;28;45583;-64
2022/03/28 02:24:03;;;;;;;;;51.75;41.00;;;;;13.32;54.67;102183.94;5041797;28;45221;-64
2022/03/28 02:26:28;;;;;;;;;53.25;39.75;;;;;13.32;54.59;102189.22;5033316;28;45294;-64
2022/03/28 02:28:54;;;;;;;;;47.00;37.25;;;;;13.30;55.42;102193.75;5061455;28;45304;-64
2022/03/28 02:31:19;;;;;;;;;52.00;39.25;;;;;13.28;55.31;102193.81;5061589;28;45629;-64
2022/03/28 02:33:45;;;;;;;;;58.00;43.00;;;;;13.27;55.27;102191.22;5061809;28;46232;-64
2022/03/28 02:36:10;;;;;;;;;51.00;39.75;;;;;13.24;55.52;102189.59;5062024;28;45146;-64
2022/03/28 02:38:36;;;;;;;;;49.50;37.25;;;;;13.19;55.32;102178.31;5061904;28;45400;-64
2022/03/28 02:41:01;;;;;;;;;51.25;40.25;;;;;13.18;55.16;102188.97;5049263;28;45587;-64
2022/03/28 02:43:27;;;;;;;;;51.00;37.25;;;;;13.16;55.13;102181.13;5047572;28;45412;-64
2022/03/28 02:45:52;;;;;;;;;52.25;37.50;;;;;13.13;54.95;102176.00;5061288;28;45428;-64
2022/03/28 02:48:18;;;;;;;;;51.50;38.75;;;;;13.10;54.79;102178.75;5061612;28;45408;-64
2022/03/28 02:50:45;;;;;;;;;46.75;37.00;;;;;13.07;55.34;102170.97;5061666;28;45233;-64
2022/03/28 02:53:11;;;;;;;;;53.00;41.25;;;;;13.06;55.59;102170.13;5061625;28;45396;-64
2022/03/28 02:55:37;;;;;;;;;52.75;41.25;;;;;13.07;55.71;102163.91;5061611;28;45527;-64
2022/03/28 02:58:03;;;;;;;;;54.50;40.25;;;;;13.06;55.51;102161.31;5061770;28;45367;-64
2022/03/28 03:00:29;;;;;;;;;49.50;34.00;;;;;13.05;56.22;102157.81;5061558;28;45367;-64
2022/03/28 03:02:54;;;;;;;;;57.50;41.75;;;;;13.03;55.82;102157.03;5061219;28;45321;-64
2022/03/28 03:05:19;;;;;;;;;54.00;41.25;;;;;13.03;57.12;102151.75;5061350;28;45250;-64
2022/03/28 03:07:48;;;;;;;;;58.25;44.75;;;;;13.01;57.45;102150.94;5055473;28;45283;-65
2022/03/28 03:10:14;;;;;;;;;51.25;39.25;;;;;13.01;57.08;102153.59;5033123;28;45297;-65
2022/03/28 03:12:39;;;;;;;;;58.00;42.75;;;;;12.99;57.12;102142.22;5040701;28;46157;-65
2022/03/28 03:15:05;;;;;;;;;57.25;43.00;;;;;12.96;57.89;102145.03;5041121;28;45395;-64
2022/03/28 03:17:31;;;;;;;;;56.75;42.50;;;;;12.93;58.29;102147.81;5040652;28;45377;-64
2022/03/28 03:19:57;;;;;;;;;53.50;41.50;;;;;12.91;58.48;102143.53;5040891;28;45361;-64
2022/03/28 03:22:22;;;;;;;;;53.00;40.25;;;;;12.88;58.50;102139.25;5040870;28;46340;-65
2022/03/28 03:24:48;;;;;;;;;58.00;43.50;;;;;12.85;58.81;102140.22;5041024;28;45240;-65
2022/03/28 03:27:14;;;;;;;;;55.00;42.75;;;;;12.81;58.58;102136.03;5040749;28;45506;-64
2022/03/28 03:29:40;;;;;;;;;57.00;42.50;;;;;12.79;58.99;102132.56;5041077;28;45344;-64
2022/03/28 03:32:06;;;;;;;;;61.00;46.00;;;;;12.77;59.25;102131.78;5047208;28;46395;-65
2022/03/28 03:34:33;;;;;;;;;63.50;43.75;;;;;12.75;59.08;102130.16;5061117;28;45395;-64
2022/03/28 03:37:00;;;;;;;;;63.50;43.75;;;;;12.75;59.43;102131.00;5061228;28;45428;-65
2022/03/28 03:39:25;;;;;;;;;58.75;44.75;;;;;12.70;59.20;102127.72;5060740;28;45380;-65
2022/03/28 03:41:55;;;;;;;;;54.50;43.50;;;;;12.69;59.37;102135.72;5040868;28;45559;-65
2022/03/28 03:44:21;;;;;;;;;59.25;46.00;;;;;12.68;59.54;102134.00;5054977;28;45243;-65
2022/03/28 03:46:47;;;;;;;;;60.00;44.00;;;;;12.66;59.24;102135.88;5060673;28;45450;-65
2022/03/28 03:49:15;;;;;;;;;56.00;43.00;;;;;12.63;59.61;102136.84;5060216;28;45509;-65
2022/03/28 03:51:41;;;;;;;;;56.50;41.25;;;;;12.60;59.27;102125.56;5060865;28;46279;-66
2022/03/28 03:54:07;;;;;;;;;54.75;43.00;;;;;12.58;59.66;102137.06;5060852;28;45285;-66
2022/03/28 03:56:33;;;;;;;;;62.50;46.50;;;;;12.57;59.70;102127.44;5061116;28;45296;-66
2022/03/28 03:58:59;;;;;;;;;56.00;44.00;;;;;12.56;59.75;102122.22;5060949;28;45217;-66
2022/03/28 04:01:28;;;;;;;;;58.00;44.75;;;;;12.55;60.18;102131.91;5060303;28;45368;-66
2022/03/28 04:03:53;;;;;;;;;58.25;45.00;;;;;12.51;59.91;102134.78;5060502;28;45376;-66
2022/03/28 04:06:19;;;;;;;;;66.25;46.75;;;;;12.47;60.83;102131.38;5059337;28;45512;-65
2022/03/28 04:08:45;;;;;;;;;61.25;45.00;;;;;12.45;60.46;102130.63;5044753;28;45471;-66
2022/03/28 04:11:10;;;;;;;;;60.00;45.50;;;;;12.44;60.83;102123.63;5039930;28;46005;-66
2022/03/28 04:13:36;;;;;;;;;56.50;44.25;;;;;12.43;60.95;102126.34;5040460;28;45511;-66
2022/03/28 04:16:02;;;;;;;;;64.50;49.25;;;;;12.41;60.89;102118.47;5039904;28;45521;-66
2022/03/28 04:18:28;;;;;;;;;63.50;46.75;;;;;12.41;60.92;102125.56;5040564;28;45291;-66
2022/03/28 04:20:54;;;;;;;;;62.50;47.25;;;;;12.39;61.17;102124.75;5040198;28;46057;-66
2022/03/28 04:23:21;;;;;;;;;52.75;41.50;;;;;12.38;60.93;102123.03;5040298;28;45404;-66
2022/03/28 04:25:47;;;;;;;;;59.00;45.00;;;;;12.37;61.23;102122.16;5040663;28;45379;-65
2022/03/28 04:28:13;;;;;;;;;62.75;42.25;;;;;12.35;61.10;102121.38;5040185;28;45375;-65
2022/03/28 04:30:38;;;;;;;;;58.25;45.25;;;;;12.34;61.10;102126.75;5039809;28;45264;-65
2022/03/28 04:33:07;;;;;;;;;59.75;45.25;;;;;12.30;61.13;102123.38;5040048;28;45320;-65
2022/03/28 04:35:33;;;;;;;;;59.25;44.25;;;;;12.31;61.27;102127.72;5047306;28;45306;-65
2022/03/28 04:38:00;;;;;;;;;58.75;45.25;;;;;12.29;61.10;102137.50;5060015;28;45191;-65
2022/03/28 04:40:26;;;;;;;;;58.75;45.25;;;;;12.24;60.67;102129.81;5052859;28;46442;-65
2022/03/28 04:42:51;;;;;;;;;58.75;43.75;;;;;12.21;61.25;102131.69;5039930;28;45261;-65
2022/03/28 04:45:17;;;;;;;;;56.00;42.25;;;;;12.19;61.36;102123.84;5060217;28;45281;-66
2022/03/28 04:47:42;;;;;;;;;58.50;45.50;;;;;12.22;61.32;102125.50;5060037;28;45422;-66
2022/03/28 04:50:08;;;;;;;;;68.50;49.50;;;;;12.18;61.44;102119.50;5059816;28;45407;-65
2022/03/28 04:52:34;;;;;;;;;65.75;46.00;;;;;12.16;61.58;102116.03;5059789;28;45308;-66
2022/03/28 04:55:00;;;;;;;;;69.00;46.25;;;;;12.16;61.42;102120.47;5060216;28;45328;-66
2022/03/28 04:57:26;;;;;;;;;63.75;44.00;;;;;12.15;61.79;102116.13;5060145;28;45600;-66
2022/03/28 04:59:52;;;;;;;;;56.25;42.75;;;;;12.15;61.64;102121.41;5060063;28;45383;-66
2022/03/28 05:02:17;;;;;;;;;68.75;46.00;;;;;12.13;62.04;102110.91;5061437;28;45347;-66
2022/03/28 05:04:43;;;;;;;;;59.00;46.00;;;;;12.16;61.90;102117.81;5063628;28;45391;-66
2022/03/28 05:07:08;;;;;;;;;67.75;46.75;;;;;12.17;62.22;102109.00;5063215;28;45233;-65
2022/03/28 05:09:34;;;;;;;;;67.50;49.50;;;;;12.19;62.08;102112.44;5043004;28;46002;-66
2022/03/28 05:11:59;;;;;;;;;58.25;45.00;;;;;12.19;61.96;102105.34;5043223;28;45255;-66
2022/03/28 05:14:24;;;;;;;;;62.75;44.50;;;;;12.24;61.97;102118.34;5042648;28;45254;-66
2022/03/28 05:16:50;;;;;;;;;62.00;46.50;;;;;12.25;61.64;102112.16;5045479;28;45233;-66
2022/03/28 05:19:16;;;;;;;;;64.50;47.25;;;;;12.25;61.47;102107.72;5050700;28;46192;-65
2022/03/28 05:21:42;;;;;;;;;57.00;43.00;;;;;12.24;61.94;102103.38;5048439;28;45447;-66
2022/03/28 05:24:07;;;;;;;;;65.50;47.50;;;;;12.23;61.75;102114.00;5062435;28;45305;-66
2022/03/28 05:26:33;;;;;;;;;63.75;45.50;;;;;12.23;62.08;102111.34;5062987;28;45551;-65
2022/03/28 05:28:58;;;;;;;;;66.00;47.50;;;;;12.21;61.89;102114.06;5061407;28;45391;-66
2022/03/28 05:31:24;;;;;;;;;65.25;46.75;;;;;12.22;62.14;102110.50;5051279;28;45411;-66
2022/03/28 05:33:50;;;;;;;;;65.00;46.25;;;;;12.22;62.19;102118.41;5062074;28;45340;-66
2022/03/28 05:36:16;;;;;;;;;60.25;45.75;;;;;12.19;61.71;102113.28;5056963;28;45335;-66
2022/03/28 05:38:42;;;;;;;;;63.25;45.25;;;;;12.16;62.03;102112.53;5053065;28;45285;-65
2022/03/28 05:41:08;;;;;;;;;54.25;41.25;;;;;12.13;62.05;102108.25;5052322;28;45447;-66
2022/03/28 05:43:35;;;;;;;;;61.50;44.75;;;;;12.12;62.17;102111.84;5050637;28;45372;-65
2022/03/28 05:46:02;;;;;;;;;67.75;50.25;;;;;12.12;62.35;102111.84;5037296;28;45348;-66
2022/03/28 05:48:28;;;;;;;;;70.25;51.50;;;;;12.14;61.87;102107.34;5042018;28;45370;-66
2022/03/28 05:50:53;;;;;;;;;66.33;49.00;;;;;12.19;61.88;102113.28;5042056;28;45340;-65
2022/03/28 05:53:19;;;;;;;;;62.33;46.67;;;;;12.21;61.99;102105.28;5042578;28;45333;-66
2022/03/28 05:55:44;;;;;;;;;70.25;48.25;;;;;12.28;62.05;102107.59;5042234;28;45447;-68
2022/03/28 05:58:11;;;;;;;;;58.50;46.00;;;;;12.35;61.87;102099.41;5045048;28;46589;-69
2022/03/28 06:00:37;;;;;;;;;64.25;48.00;;;;;12.42;61.45;102101.69;5047947;28;45392;-66
2022/03/28 06:03:06;;;;;;;;;61.33;47.00;;;;;12.50;61.52;102106.63;5046199;28;45427;-67
2022/03/28 06:05:32;;;;;;;;;57.75;47.00;;;;;12.54;61.41;102102.91;5042104;28;45340;-74
2022/03/28 06:07:58;;;;;;;;;58.50;44.00;;;;;12.60;61.19;102104.41;5044607;28;46170;-71
2022/03/28 06:10:24;;;;;;;;;66.00;46.75;;;;;12.66;61.06;102105.00;5041661;28;45313;-71
2022/03/28 06:12:50;;;;;;;;;64.00;45.00;;;;;12.71;61.39;102108.28;5041604;28;45409;-67
2022/03/28 06:15:17;;;;;;;;;64.25;46.25;;;;;12.76;61.06;102108.91;5041727;28;45502;-65
2022/03/28 06:17:43;;;;;;;;;63.50;44.50;;;;;12.81;61.00;102106.09;5041883;28;45329;-60
2022/03/28 06:20:10;;;;;;;;;65.00;46.00;;;;;12.87;61.06;102116.34;5037393;28;45421;-63
2022/03/28 06:22:35;;;;;;;;;56.50;44.50;;;;;12.91;61.12;102107.34;5047274;28;45490;-63
2022/03/28 06:25:02;;;;;;;;;64.00;48.00;;;;;12.95;60.99;102105.41;5045808;28;45162;-63
2022/03/28 06:27:27;;;;;;;;;59.25;47.75;;;;;12.97;60.83;102100.94;5049924;28;46160;-63
2022/03/28 06:29:53;;;;;;;;;67.75;46.75;;;;;12.96;60.75;102104.50;5059479;28;45398;-60
2022/03/28 06:32:19;;;;;;;;;61.25;41.00;;;;;12.94;60.96;102095.75;5051217;28;45394;-61
2022/03/28 06:34:45;;;;;;;;;58.50;45.50;;;;;12.92;60.98;102101.13;5052827;28;45465;-64
2022/03/28 06:37:11;;;;;;;;;64.75;47.00;;;;;12.90;61.16;102110.06;5048066;28;45558;-64
2022/03/28 06:39:36;;;;;;;;;61.25;45.25;;;;;12.86;61.15;102107.56;5060030;28;45432;-65
2022/03/28 06:42:03;;;;;;;;;51.75;43.50;;;;;12.85;60.95;102103.19;5059474;28;45237;-64
2022/03/28 06:44:30;;;;;;;;;62.25;44.75;;;;;12.82;61.05;102106.00;5048633;28;45644;-63
2022/03/28 06:46:56;;;;;;;;;56.50;46.00;;;;;12.80;60.86;102105.22;5054605;28;46077;-64
2022/03/28 06:49:21;;;;;;;;;59.00;43.75;;;;;12.83;61.15;102104.22;5050055;28;45205;-65
2022/03/28 06:51:47;;;;;;;;;62.75;45.25;;;;;12.87;61.04;102103.13;5046518;28;45297;-64
2022/03/28 06:54:14;;;;;;;;;62.33;48.00;;;;;12.88;61.19;102102.22;5050024;28;45458;-64
2022/03/28 06:56:41;;;;;;;;;61.67;50.00;;;;;12.85;61.09;102100.56;5047285;28;45391;-64
2022/03/28 06:59:08;;;;;;;;;58.67;46.67;;;;;12.83;60.94;102098.94;5049564;28;45374;-65
2022/03/28 07:01:34;;;;;;;;;66.25;47.50;;;;;12.84;61.16;102093.56;5042952;28;45466;-64
2022/03/28 07:04:00;;;;;;;;;63.50;43.75;;;;;12.85;61.60;102097.91;5049937;28;45171;-64
2022/03/28 07:06:25;;;;;;;;;58.25;44.00;;;;;12.83;61.18;102091.84;5041423;28;47214;-65
2022/03/28 07:08:51;;;;;;;;;63.00;46.33;;;;;12.80;61.01;102094.66;5061106;28;45267;-64
2022/03/28 07:11:17;;;;;;;;;62.75;47.25;;;;;12.79;61.23;102092.03;5040417;28;46051;-65
2022/03/28 07:13:43;;;;;;;;;56.00;42.50;;;;;12.83;61.26;102089.19;5061562;28;45258;-65
2022/03/28 07:16:08;;;;;;;;;68.25;47.50;;;;;12.89;61.02;102092.50;5060929;28;46144;-64
2022/03/28 07:18:34;;;;;;;;;60.75;46.50;;;;;12.92;61.03;102087.06;5036579;28;45261;-64
2022/03/28 07:20:59;;;;;;;;;67.00;49.75;;;;;12.95;60.87;102092.19;5047643;28;45431;-64
2022/03/28 07:23:25;;;;;;;;;66.25;48.00;;;;;12.97;60.97;102083.25;5040658;28;45427;-64
2022/03/28 07:25:50;;;;;;;;;63.25;46.50;;;;;13.03;60.95;102082.09;5040449;28;46222;-64
2022/03/28 07:28:17;;;;;;;;;68.67;52.00;;;;;13.08;60.87;102078.31;5041025;28;45348;-65
2022/03/28 07:30:43;;;;;;;;;65.33;47.33;;;;;13.17;60.74;102084.94;5054013;28;45242;-64
2022/03/28 07:33:09;;;;;;;;;55.75;46.00;;;;;13.20;60.70;102078.69;5054644;28;45422;-64
2022/03/28 07:35:36;;;;;;;;;57.00;45.33;;;;;13.27;60.43;102083.59;5043229;28;45263;-64
2022/03/28 07:38:07;;;;;;;;;63.67;49.67;;;;;13.30;60.49;102088.75;5065124;28;45257;-65
2022/03/28 07:40:33;;;;;;;;;58.67;43.67;;;;;13.34;60.26;102090.28;5042988;28;45435;-64
2022/03/28 07:42:59;;;;;;;;;67.00;48.75;;;;;13.39;60.34;102088.28;5041089;28;45168;-64
2022/03/28 07:45:24;;;;;;;;;64.00;47.00;;;;;13.42;60.27;102081.97;5040454;28;45262;-64
2022/03/28 07:47:50;;;;;;;;;61.33;47.00;;;;;13.48;59.87;102084.31;5040777;28;45404;-64
2022/03/28 07:50:15;;;;;;;;;64.33;47.33;;;;;13.54;59.80;102088.47;5040642;28;45627;-64
2022/03/28 07:52:41;;;;;;;;;61.00;48.25;;;;;13.62;59.80;102076.53;5040843;28;45230;-64
2022/03/28 07:55:08;;;;;;;;;72.00;51.33;;;;;13.69;59.46;102079.75;5040720;28;45392;-64
2022/03/28 07:57:36;;;;;;;;;61.75;48.25;;;;;13.72;59.50;102070.78;5040651;28;45458;-64
2022/03/28 08:00:04;;;;;;;;;61.75;46.00;;;;;13.76;59.47;102072.34;5040346;28;45468;-65
2022/03/28 08:02:29;;;;;;;;;66.00;50.67;;;;;13.80;59.23;102073.88;5035034;28;45643;-64
2022/03/28 08:04:55;;;;;;;;;76.00;58.00;;;;;13.87;59.22;102073.50;5028963;28;45199;-65
2022/03/28 08:07:21;;;;;;;;;65.00;51.00;;;;;13.95;59.26;102075.75;5060624;28;45257;-65
2022/03/28 08:09:47;;;;;;;;;64.33;49.67;;;;;14.02;59.11;102076.28;5071929;28;45459;-65
2022/03/28 08:12:12;;;;;;;;;66.33;49.67;;;;;14.10;59.16;102074.94;5058405;28;45442;-65
2022/03/28 08:14:39;;;;;;;;;63.33;49.33;;;;;14.20;58.72;102084.09;5040752;28;45420;-64
2022/03/28 08:17:06;;;;;;;;;62.67;47.33;;;;;14.28;58.56;102081.06;5060327;28;45417;-64
2022/03/28 08:19:32;;;;;;;;;67.25;49.25;;;;;14.36;58.62;102080.66;5069444;28;45473;-64
2022/03/28 08:21:57;;;;;;;;;63.25;48.75;;;;;14.40;58.34;102074.25;5047982;28;45214;-64
2022/03/28 08:24:23;;;;;;;;;67.50;48.00;;;;;14.44;58.35;102076.63;5060235;28;46211;-64
2022/03/28 08:26:49;;;;;;;;;68.50;50.50;;;;;14.51;58.08;102078.06;5060471;28;45313;-64
2022/03/28 08:29:15;;;;;;;;;66.75;50.00;;;;;14.57;57.93;102078.66;5060264;28;45271;-64
2022/03/28 08:31:41;;;;;;;;;63.25;48.25;;;;;14.64;58.12;102066.78;5059838;28;45414;-64
2022/03/28 08:34:07;;;;;;;;;59.75;46.00;;;;;14.74;57.80;102065.34;5060452;28;45257;-64
2022/03/28 08:36:34;;;;;;;;;63.50;49.50;;;;;14.83;57.78;102063.97;5061444;28;45355;-65
2022/03/28 08:38:59;;;;;;;;;68.00;49.00;;;;;14.92;57.40;102060.78;5063888;28;45298;-64
2022/03/28 08:41:26;;;;;;;;;60.50;46.75;;;;;14.99;57.40;102052.41;5050731;28;45565;-64
2022/03/28 08:43:52;;;;;;;;;64.25;47.50;;;;;15.08;57.54;102051.00;5050568;28;45463;-64
2022/03/28 08:46:18;;;;;;;;;71.75;50.25;;;;;15.17;57.15;102053.16;5063369;28;45258;-64
2022/03/28 08:48:44;;;;;;;;;60.50;47.00;;;;;15.29;57.08;102060.41;5063824;28;45408;-64
2022/03/28 08:51:13;;;;;;;;;60.50;48.50;;;;;15.40;57.03;102054.47;5063896;28;46119;-65
2022/03/28 08:53:39;;;;;;;;;73.75;50.25;;;;;15.46;56.52;102051.44;5063823;28;46161;-65
2022/03/28 08:56:07;;;;;;;;;60.50;46.75;;;;;15.54;56.53;102051.84;5063545;28;45257;-65
2022/03/28 08:58:34;;;;;;;;;64.75;48.50;;;;;15.62;56.58;102054.09;5064076;28;45224;-64
2022/03/28 09:01:00;;;;;;;;;61.50;49.00;;;;;15.70;56.48;102046.50;5063614;28;45387;-65
2022/03/28 09:03:40;;;;;;;;;59.00;47.25;;;;;15.83;55.75;102047.50;5063499;28;46304;-64
2022/03/28 09:06:28;;;;;;;;;68.00;51.00;;;;;15.91;55.51;102042.56;5063344;28;45277;-64
2022/03/28 09:08:54;;;;;;;;;68.50;50.00;;;;;16.01;55.40;102042.00;5063735;28;45167;-65
2022/03/28 09:11:22;;;;;;;;;62.00;48.00;;;;;16.08;55.37;102041.53;5063395;28;45546;-64
2022/03/28 09:13:47;;;;;;;;;66.75;46.25;;;;;16.14;55.28;102042.97;5063132;28;46284;-64
2022/03/28 09:16:19;;;;;;;;;64.00;47.75;;;;;16.22;55.07;102043.34;5062614;28;45327;-64
2022/03/28 09:18:45;;;;;;;;;61.00;48.25;;;;;16.29;54.89;102039.34;5062711;28;45190;-64
2022/03/28 09:21:14;;;;;;;;;61.00;48.50;;;;;16.35;54.63;102036.31;5043386;28;45194;-64
2022/03/28 09:23:45;;;;;;;;;61.75;48.25;;;;;16.44;54.77;102037.53;5057254;28;46103;-64
2022/03/28 09:26:22;;;;;;;;;67.00;49.50;;;;;16.51;54.27;102044.19;5063167;28;45296;-64
2022/03/28 09:28:56;;;;;;;;;61.50;45.50;;;;;16.62;53.80;102030.19;5063313;28;45422;-65
2022/03/28 09:31:32;;;;;;;;;59.50;45.25;;;;;16.68;53.69;102035.97;5062872;28;45483;-65
2022/03/28 09:34:01;;;;;;;;;54.75;42.25;;;;;16.78;53.44;102032.75;5063027;28;45996;-64
2022/03/28 09:36:52;;;;;;;;;67.75;48.75;;;;;16.81;53.41;102028.06;5062899;28;45323;-64
2022/03/28 09:39:27;;;;;;;;;65.50;51.00;;;;;16.91;53.21;102031.88;5063089;28;45442;-65
2022/03/28 09:42:10;;;;;;;;;66.00;48.00;;;;;17.03;53.19;102024.88;5045367;28;45272;-65
2022/03/28 09:44:35;;;;;;;;;66.25;52.50;;;;;17.17;52.71;102026.63;5042522;28;45484;-64
2022/03/28 09:47:09;;;;;;;;;60.75;46.25;;;;;17.26;52.56;102029.53;5041422;28;45273;-65
2022/03/28 09:49:35;;;;;;;;;65.50;48.75;;;;;17.35;52.14;102019.19;5041436;28;45233;-64
2022/03/28 09:52:13;;;;;;;;;66.00;47.25;;;;;17.45;52.32;102020.28;5042929;28;45348;-65
2022/03/28 09:54:45;;;;;;;;;61.00;46.75;;;;;17.54;52.40;102011.69;5042441;28;45377;-65
2022/03/28 09:57:13;;;;;;;;;66.00;47.00;;;;;17.57;51.79;102012.31;5042682;28;45241;-63
2022/03/28 09:59:42;;;;;;;;;61.50;46.50;;;;;17.64;51.62;102012.75;5042655;28;45351;-64
2022/03/28 10:02:17;;;;;;;;;66.00;49.00;;;;;17.71;51.68;102008.75;5042331;28;45531;-64
2022/03/28 10:04:49;;;;;;;;;61.50;46.75;;;;;17.83;51.44;102013.22;5042241;28;45265;-64
2022/03/28 10:07:15;;;;;;;;;63.00;47.25;;;;;17.91;50.97;102007.34;5042395;28;45328;-64
2022/03/28 10:09:41;;;;;;;;;54.50;45.00;;;;;17.99;50.82;102002.31;5042416;28;45254;-64
2022/03/28 10:12:07;;;;;;;;;59.00;46.25;;;;;18.09;49.93;101992.75;5042011;28;45374;-64
2022/03/28 10:14:33;;;;;;;;;61.75;46.25;;;;;18.19;49.58;101994.75;5024163;28;45407;-64
2022/03/28 10:17:02;;;;;;;;;56.50;45.00;;;;;18.27;49.70;101989.72;5041963;28;45361;-65
2022/03/28 10:19:32;;;;;;;;;54.50;42.25;;;;;18.33;48.85;101989.28;5045430;28;45292;-64
2022/03/28 10:21:58;;;;;;;;;58.00;44.00;;;;;18.35;48.66;101987.34;5042478;28;45309;-64
2022/03/28 10:24:30;;;;;;;;;47.75;36.75;;;;;18.36;48.84;101973.03;5062243;28;46041;-65
2022/03/28 10:26:57;;;;;;;;;56.50;45.50;;;;;18.42;48.59;101973.44;5061954;28;45424;-64
2022/03/28 10:29:32;;;;;;;;;60.50;45.50;;;;;18.51;48.54;101968.41;5062497;28;45436;-64
2022/03/28 10:32:06;;;;;;;;;56.25;41.00;;;;;18.59;48.04;101964.22;5061858;28;45166;-64
2022/03/28 10:34:46;;;;;;;;;54.25;42.00;;;;;18.68;47.62;101958.22;5062103;28;46721;-64
2022/03/28 10:37:36;;;;;;;;;53.50;41.00;;;;;18.78;47.32;101955.72;5061862;28;45282;-65
2022/03/28 10:40:24;;;;;;;;;53.75;43.50;;;;;18.88;46.12;101954.09;5059238;28;45392;-64
2022/03/28 10:42:58;;;;;;;;;56.50;41.75;;;;;18.93;46.16;101938.53;5042020;28;45564;-64
2022/03/28 10:45:42;;;;;;;;;48.00;38.00;;;;;19.08;45.30;101941.03;5048555;28;46195;-64
2022/03/28 10:48:09;;;;;;;;;55.00;43.25;;;;;19.12;45.02;101931.84;5061739;28;45431;-65
2022/03/28 10:50:49;;;;;;;;;52.50;41.00;;;;;19.22;44.02;101927.47;5061924;28;45256;-64
2022/03/28 10:53:29;;;;;;;;;47.25;38.25;;;;;19.36;43.73;101932.63;5061904;28;45265;-65
2022/03/28 10:56:16;;;;;;;;;52.00;38.25;;;;;19.49;43.30;101929.81;5061501;28;45252;-65
2022/03/28 10:58:53;;;;;;;;;52.75;38.50;;;;;19.60;43.71;101924.53;5061759;28;45299;-64
2022/03/28 11:01:26;;;;;;;;;47.50;37.50;;;;;19.72;43.09;101926.22;5060994;28;45312;-64
2022/03/28 11:04:01;;;;;;;;;53.00;40.00;;;;;19.85;42.94;101922.59;5061635;28;45265;-64
2022/03/28 11:07:00;;;;;;;;;44.50;32.00;;;;;19.93;40.90;101907.63;5061405;28;46141;-65
2022/03/28 11:09:34;;;;;;;;;46.00;35.75;;;;;20.00;41.53;101908.84;5061279;28;45482;-65